Time;durP1;ratioP1;P1;durP2;ratioP2;P2;SDS_P1;SDS_P2;PMS_P1;PMS_P2;Temp;Humidity;BMP_temperature;BMP_pressure;BME280_temperature;BME280_humidity;BME280_pressure;Samples;Min_cycle;Max_cycle;Signal;HPM_P1;HPM_P2
2023/05/04 00:01:37;;;;;;;9.33;4.85;;;;;;;7.25;100.00;101064.67;1699666;84;21207;-79
2023/05/04 00:04:43;;;;;;;8.60;4.22;;;;;;;7.23;100.00;101068.00;1703984;84;21196;-78
2023/05/04 00:07:47;;;;;;;21.93;5.22;;;;;;;7.20;100.00;101076.47;1703884;84;21255;-79
2023/05/04 00:10:54;;;;;;;10.30;4.65;;;;;;;7.16;100.00;101079.09;1702991;84;22096;-79
2023/05/04 00:14:00;;;;;;;14.20;4.70;;;;;;;7.13;100.00;101080.20;1702653;84;21221;-79
2023/05/04 00:17:06;;;;;;;13.13;4.72;;;;;;;7.11;100.00;101082.22;1700690;84;21229;-79
2023/05/04 00:20:14;;;;;;;7.45;4.15;;;;;;;7.11;100.00;101083.58;1697533;84;21959;-79
2023/05/04 00:23:19;;;;;;;11.00;4.62;;;;;;;7.10;100.00;101083.19;1698008;84;21899;-79
2023/05/04 00:26:18;;;;;;;16.32;4.60;;;;;;;7.07;100.00;101076.67;1697075;84;21778;-79
2023/05/04 00:29:25;;;;;;;8.30;4.58;;;;;;;7.01;100.00;101080.41;1698153;84;21226;-79
2023/05/04 00:32:31;;;;;;;13.30;4.95;;;;;;;7.02;100.00;101075.36;1697736;84;21217;-78
2023/05/04 00:35:37;;;;;;;7.15;4.83;;;;;;;7.00;100.00;101086.36;1700479;83;21233;-78
2023/05/04 00:38:56;;;;;;;8.30;4.80;;;;;;;6.98;100.00;101080.20;1699847;84;21238;-78
2023/05/04 00:42:02;;;;;;;9.70;4.60;;;;;;;6.97;100.00;101082.56;1699928;84;22455;-78
2023/05/04 00:45:07;;;;;;;12.00;4.85;;;;;;;6.98;100.00;101072.55;1699910;84;21229;-78
2023/05/04 00:48:13;;;;;;;9.90;4.75;;;;;;;6.99;100.00;101072.40;1699910;84;21197;-79
2023/05/04 00:51:19;;;;;;;9.50;4.87;;;;;;;6.98;100.00;101068.47;1699227;84;21284;-78
2023/05/04 00:54:25;;;;;;;13.45;4.05;;;;;;;6.95;100.00;101065.50;1699980;84;21198;-79
2023/05/04 00:57:31;;;;;;;11.75;5.05;;;;;;;7.02;100.00;101066.70;1699969;84;21197;-79
2023/05/04 01:00:38;;;;;;;12.63;5.28;;;;;;;7.01;100.00;101064.09;1698797;84;21221;-79
2023/05/04 01:03:37;;;;;;;10.90;4.42;;;;;;;6.92;100.00;101058.99;1698844;84;21217;-79
2023/05/04 01:06:54;;;;;;;7.62;4.87;;;;;;;6.89;100.00;101059.25;1699848;84;21197;-79
2023/05/04 01:10:22;;;;;;;9.58;4.92;;;;;;;6.87;100.00;101058.03;1699952;84;21189;-79
2023/05/04 01:13:29;;;;;;;10.63;5.55;;;;;;;6.77;100.00;101054.37;1699888;84;21241;-79
2023/05/04 01:16:35;;;;;;;12.07;4.78;;;;;;;6.76;100.00;101057.23;1699906;84;21188;-79
2023/05/04 01:19:41;;;;;;;8.63;4.87;;;;;;;6.71;100.00;101063.06;1699901;84;21194;-79
2023/05/04 01:22:49;;;;;;;9.43;4.47;;;;;;;6.62;100.00;101072.02;1699498;84;21236;-79
2023/05/04 01:26:15;;;;;;;6.55;4.28;;;;;;;6.56;100.00;101080.20;1698699;84;21776;-79
2023/05/04 01:29:25;;;;;;;6.42;4.10;;;;;;;6.54;100.00;101070.45;1699952;84;21740;-79
2023/05/04 01:32:31;;;;;;;9.23;4.37;;;;;;;6.51;100.00;101074.81;1698651;84;21206;-79
2023/05/04 01:35:37;;;;;;;7.60;4.58;;;;;;;6.44;100.00;101077.17;1698457;84;21315;-79
2023/05/04 01:38:43;;;;;;;9.18;4.97;;;;;;;6.40;100.00;101072.52;1696373;84;21230;-78
2023/05/04 01:41:49;;;;;;;10.13;5.83;;;;;;;6.38;100.00;101070.91;1696392;84;21253;-78
2023/05/04 01:44:56;;;;;;;10.88;5.20;;;;;;;6.52;100.00;101069.73;1697098;84;21193;-79
2023/05/04 01:48:02;;;;;;;13.38;5.53;;;;;;;6.47;100.00;101064.69;1697268;84;21265;-79
2023/05/04 01:51:08;;;;;;;13.32;5.47;;;;;;;6.48;100.00;101066.91;1696028;84;21229;-79
2023/05/04 01:54:14;;;;;;;8.68;5.70;;;;;;;6.52;100.00;101077.39;1724934;82;21216;-78
2023/05/04 01:57:20;;;;;;;8.33;5.78;;;;;;;6.50;100.00;101071.23;1724988;83;21169;-79
2023/05/04 02:00:27;;;;;;;11.65;5.58;;;;;;;6.51;100.00;101080.25;1724185;83;21235;-78
2023/05/04 02:03:33;;;;;;;11.18;6.37;;;;;;;6.50;100.00;101077.17;1725181;83;21220;-78
2023/05/04 02:06:39;;;;;;;11.63;5.87;;;;;;;6.48;100.00;101076.42;1723635;83;21235;-79
2023/05/04 02:09:44;;;;;;;13.28;6.15;;;;;;;6.48;100.00;101069.62;1723964;83;21192;-79
2023/05/04 02:12:49;;;;;;;13.30;6.37;;;;;;;6.48;100.00;101066.41;1724177;83;21212;-79
2023/05/04 02:15:55;;;;;;;12.07;6.17;;;;;;;6.50;100.00;101067.66;1725096;83;21755;-79
2023/05/04 02:19:01;;;;;;;12.37;5.72;;;;;;;6.52;100.00;101062.44;1725038;83;21189;-78
2023/05/04 02:22:07;;;;;;;11.20;4.70;;;;;;;6.53;100.00;101060.08;1723838;83;21224;-78
2023/05/04 02:25:15;;;;;;;8.93;5.25;;;;;;;6.47;100.00;101064.69;1725238;83;21196;-78
2023/05/04 02:28:20;;;;;;;8.35;5.50;;;;;;;6.43;100.00;101069.16;1725282;83;21169;-78
2023/05/04 02:31:26;;;;;;;10.25;5.20;;;;;;;6.45;100.00;101063.11;1725072;83;21298;-78
2023/05/04 02:34:34;;;;;;;16.67;5.62;;;;;;;6.51;100.00;101062.58;1725162;83;21235;-79
2023/05/04 02:37:39;;;;;;;7.95;4.58;;;;;;;6.62;100.00;101063.86;1727650;82;21280;-78
2023/05/04 02:40:45;;;;;;;9.55;5.33;;;;;;;6.72;100.00;101057.98;1748707;82;21197;-79
2023/05/04 02:43:50;;;;;;;14.13;5.72;;;;;;;6.90;100.00;101050.95;1748709;82;21181;-79
2023/05/04 02:46:56;;;;;;;9.55;4.62;;;;;;;7.07;100.00;101054.91;1748768;82;21214;-78
2023/05/04 02:50:02;;;;;;;17.60;4.60;;;;;;;7.33;100.00;101044.91;1748887;82;21195;-78
2023/05/04 02:53:07;;;;;;;31.10;5.42;;;;;;;7.64;100.00;101049.83;1747828;82;21200;-78
2023/05/04 02:56:12;;;;;;;18.92;5.62;;;;;;;8.05;100.00;101058.80;1748677;82;21224;-78
2023/05/04 02:59:18;;;;;;;13.98;4.75;;;;;;;8.50;99.04;101058.25;1748488;82;21259;-78
2023/05/04 03:02:23;;;;;;;17.42;4.87;;;;;;;8.81;96.16;101044.79;1748313;82;21188;-79
2023/05/04 03:05:28;;;;;;;7.40;4.08;;;;;;;9.06;94.06;101037.81;1748727;82;21184;-78
2023/05/04 03:08:34;;;;;;;9.20;4.30;;;;;;;9.32;92.77;101029.83;1748584;82;21196;-78
2023/05/04 03:11:34;;;;;;;15.18;4.83;;;;;;;9.30;92.25;101025.00;1748658;82;21190;-79
2023/05/04 03:14:27;;;;;;;13.68;4.83;;;;;;;9.31;91.65;101019.89;1747186;82;21188;-78
2023/05/04 03:17:14;;;;;;;14.43;4.85;;;;;;;9.35;91.04;101022.67;1748536;82;21731;-78
2023/05/04 03:20:08;;;;;;;11.93;4.33;;;;;;;9.41;91.17;101023.45;1747153;82;21180;-78
2023/05/04 03:22:55;;;;;;;16.25;4.62;;;;;;;9.57;91.19;101026.02;1748111;82;21169;-78
2023/05/04 03:25:48;;;;;;;8.75;4.08;;;;;;;9.71;91.06;101025.00;1747658;82;21835;-77
2023/05/04 03:28:55;;;;;;;12.15;4.50;;;;;;;9.96;90.65;101032.09;1748847;82;21196;-78
2023/05/04 03:32:03;;;;;;;13.65;3.87;;;;;;;10.24;89.49;101026.08;1748761;82;21180;-78
2023/05/04 03:35:08;;;;;;;16.62;4.58;;;;;;;10.48;88.92;101018.59;1726970;81;21235;-78
2023/05/04 03:38:15;;;;;;;7.22;4.42;;;;;;;10.75;87.72;101020.34;1716734;83;21186;-78
2023/05/04 03:41:21;;;;;;;10.08;4.47;;;;;;;10.99;86.58;101021.02;1752761;81;21238;-78
2023/05/04 03:44:26;;;;;;;8.68;4.03;;;;;;;11.21;85.54;101016.87;1751629;82;21239;-78
2023/05/04 03:47:32;;;;;;;12.23;4.80;;;;;;;11.40;84.19;101020.72;1752955;82;21195;-78
2023/05/04 03:50:37;;;;;;;12.35;4.53;;;;;;;11.55;83.97;101020.09;1752706;82;21806;-78
2023/05/04 03:53:42;;;;;;;10.85;4.65;;;;;;;11.59;84.54;101016.86;1752074;82;22476;-78
2023/05/04 03:56:50;;;;;;;9.20;4.22;;;;;;;11.73;83.63;101008.00;1751223;82;21267;-78
2023/05/04 03:59:57;;;;;;;10.80;3.65;;;;;;;11.82;82.03;101015.77;1752208;82;21330;-79
2023/05/04 04:03:09;;;;;;;10.85;4.20;;;;;;;11.81;80.55;101015.40;1751419;82;21179;-79
2023/05/04 04:06:16;;;;;;;7.97;4.28;;;;;;;11.79;80.56;101018.80;1752942;82;21167;-79
2023/05/04 04:09:21;;;;;;;6.75;3.90;;;;;;;11.83;80.39;101020.73;1752804;82;21782;-79
2023/05/04 04:12:26;;;;;;;15.00;4.92;;;;;;;11.91;80.81;101027.10;1753118;82;21156;-79
2023/05/04 04:15:33;;;;;;;11.20;3.70;;;;;;;12.03;80.81;101014.77;1753477;82;21195;-78
2023/05/04 04:18:40;;;;;;;17.23;4.47;;;;;;;12.20;81.94;101025.27;1752948;82;21183;-78
2023/05/04 04:21:47;;;;;;;12.85;4.80;;;;;;;12.34;82.02;101019.63;1753669;82;21234;-78
2023/05/04 04:24:52;;;;;;;11.05;4.40;;;;;;;12.46;81.62;101012.75;1751688;82;21803;-78
2023/05/04 04:27:58;;;;;;;10.08;3.75;;;;;;;12.62;81.73;101022.03;1752728;82;21176;-78
2023/05/04 04:31:04;;;;;;;12.10;4.08;;;;;;;12.74;82.32;101023.37;1752726;82;21466;-78
2023/05/04 04:34:10;;;;;;;6.62;3.70;;;;;;;12.79;81.43;101016.84;1749508;79;21212;-79
2023/05/04 04:37:16;;;;;;;15.10;4.28;;;;;;;12.95;81.34;101016.83;1745569;82;21188;-78
2023/05/04 04:40:23;;;;;;;10.35;4.40;;;;;;;13.16;80.92;101019.52;1745908;81;21322;-78
2023/05/04 04:43:29;;;;;;;13.80;4.42;;;;;;;13.36;80.53;101022.26;1747406;82;21731;-78
2023/05/04 04:46:35;;;;;;;6.97;3.65;;;;;;;13.65;79.81;101018.87;1747622;82;21172;-78
2023/05/04 04:49:42;;;;;;;10.78;4.08;;;;;;;14.04;77.81;101018.80;1747518;82;22408;-79
2023/05/04 04:52:48;;;;;;;10.25;3.45;;;;;;;14.24;76.72;101014.20;1747199;82;21810;-79
2023/05/04 04:55:54;;;;;;;16.00;3.60;;;;;;;14.42;75.91;101004.27;1746880;82;21267;-79
2023/05/04 04:59:00;;;;;;;14.53;3.10;;;;;;;14.59;75.70;101009.16;1745479;82;21204;-79
2023/05/04 05:02:08;;;;;;;16.27;3.83;;;;;;;14.77;76.19;101011.02;1746613;82;21184;-79
2023/05/04 05:05:15;;;;;;;8.23;4.03;;;;;;;14.93;75.89;101004.52;1746203;82;21228;-79
2023/05/04 05:08:21;;;;;;;9.85;3.37;;;;;;;15.14;75.00;101005.14;1747442;82;21758;-80
2023/05/04 05:11:26;;;;;;;7.45;3.45;;;;;;;15.27;74.74;100999.83;1747061;82;21236;-80
2023/05/04 05:14:34;;;;;;;10.70;3.62;;;;;;;15.43;73.77;101001.52;1747006;82;21207;-79
2023/05/04 05:17:40;;;;;;;6.97;3.22;;;;;;;15.60;73.13;101003.03;1743557;80;21180;-79
2023/05/04 05:20:45;;;;;;;10.65;3.85;;;;;;;15.79;71.60;101010.73;1744235;82;21227;-79
2023/05/04 05:23:50;;;;;;;10.95;3.52;;;;;;;15.97;70.40;101018.59;1730074;80;21781;-79
2023/05/04 05:26:56;;;;;;;6.72;3.52;;;;;;;16.16;69.48;101024.53;1736281;80;21183;-80
2023/05/04 05:30:02;;;;;;;6.87;3.20;;;;;;;16.34;70.55;101027.70;1697851;82;21180;-80
2023/05/04 05:33:07;;;;;;;17.40;3.85;;;;;;;16.53;70.41;101027.56;1712445;81;21184;-80
2023/05/04 05:36:14;;;;;;;7.58;2.90;;;;;;;16.70;68.62;101033.65;1699742;82;21197;-79
2023/05/04 05:39:19;;;;;;;10.30;3.58;;;;;;;16.80;68.22;101041.13;1717451;81;21473;-79
2023/05/04 05:42:24;;;;;;;6.28;3.25;;;;;;;16.95;67.32;101029.45;1702604;82;21304;-80
2023/05/04 05:45:29;;;;;;;8.60;3.15;;;;;;;17.14;66.66;101035.33;1691011;83;21217;-79
2023/05/04 05:48:34;;;;;;;6.85;2.83;;;;;;;17.33;66.82;101039.60;1687149;83;21216;-79
2023/05/04 05:51:40;;;;;;;5.35;2.65;;;;;;;17.50;65.88;101037.88;1683750;84;21221;-79
2023/05/04 05:54:45;;;;;;;7.22;2.17;;;;;;;17.66;63.33;101032.02;1690229;82;21276;-79
2023/05/04 05:57:51;;;;;;;11.30;2.52;;;;;;;17.77;60.92;101031.99;1695179;81;21811;-79
2023/05/04 06:00:57;;;;;;;11.05;2.55;;;;;;;17.88;59.53;101027.27;1665094;83;21241;-79
2023/05/04 06:04:03;;;;;;;14.85;2.60;;;;;;;17.99;56.01;101028.58;1670724;85;21229;-79
2023/05/04 06:07:09;;;;;;;5.92;2.45;;;;;;;18.08;55.24;101037.88;1725441;80;21145;-78
2023/05/04 06:10:15;;;;;;;13.18;2.67;;;;;;;18.25;54.83;101032.79;1718618;81;21169;-78
2023/05/04 06:13:21;;;;;;;10.58;2.50;;;;;;;18.40;54.07;101042.33;1714972;83;21181;-79
2023/05/04 06:16:26;;;;;;;12.88;2.75;;;;;;;18.52;53.88;101037.86;1720033;81;21192;-79
2023/05/04 06:19:32;;;;;;;6.60;2.33;;;;;;;18.59;54.37;101040.13;1719886;81;21181;-78
2023/05/04 06:22:38;;;;;;;6.67;2.30;;;;;;;18.63;52.68;101046.06;1717615;80;21210;-79
2023/05/04 06:25:43;;;;;;;8.88;2.25;;;;;;;18.72;52.87;101038.44;1710118;81;21228;-79
2023/05/04 06:28:50;;;;;;;5.25;2.37;;;;;;;18.82;53.68;101047.18;1721127;81;21277;-79
2023/05/04 06:31:55;;;;;;;5.25;2.52;;;;;;;18.76;53.88;101038.34;1721508;81;21480;-80
2023/05/04 06:35:10;;;;;;;4.28;2.47;;;;;;;18.80;54.05;101041.01;1731030;83;21351;-79
2023/05/04 06:38:17;;;;;;;5.00;2.20;;;;;;;18.80;53.90;101041.01;1722603;83;21750;-79
2023/05/04 06:41:23;;;;;;;6.25;2.35;;;;;;;18.75;53.63;101047.72;1719074;81;21346;-78
2023/05/04 06:44:28;;;;;;;8.03;2.72;;;;;;;18.75;53.96;101039.41;1730867;80;21913;-78
2023/05/04 06:47:33;;;;;;;10.80;2.08;;;;;;;18.93;55.30;101038.24;1717977;82;21900;-78
2023/05/04 06:50:39;;;;;;;5.20;2.33;;;;;;;19.10;54.80;101028.44;1734340;80;21229;-80
2023/05/04 06:53:46;;;;;;;12.63;2.40;;;;;;;19.06;54.67;101029.92;1722504;80;21204;-79
2023/05/04 06:56:52;;;;;;;8.70;2.90;;;;;;;18.99;55.53;101032.38;1727326;80;21889;-79
2023/05/04 06:59:59;;;;;;;7.87;2.42;;;;;;;19.00;55.07;101027.98;1730344;80;21184;-79
2023/05/04 07:03:05;;;;;;;5.22;2.40;;;;;;;19.09;54.71;101028.09;1737234;81;21184;-79
2023/05/04 07:06:10;;;;;;;5.10;2.22;;;;;;;19.27;53.89;101030.20;1733805;80;21317;-79
2023/05/04 07:09:16;;;;;;;6.53;2.05;;;;;;;19.45;53.80;101032.30;1736731;80;21184;-79
2023/05/04 07:12:16;;;;;;;5.37;2.30;;;;;;;19.66;51.97;101028.41;1690608;83;21216;-79
2023/05/04 07:15:23;;;;;;;10.50;2.27;;;;;;;19.79;52.09;101025.59;1669067;84;21194;-79
2023/05/04 07:18:30;;;;;;;6.37;1.80;;;;;;;19.85;50.74;101028.02;1662074;84;21209;-79
2023/05/04 07:21:35;;;;;;;8.73;2.10;;;;;;;19.94;49.17;101030.87;1680515;84;21678;-79
2023/05/04 07:24:39;;;;;;;4.08;1.60;;;;;;;20.10;50.81;101028.14;1683296;83;21193;-78
2023/05/04 07:27:45;;;;;;;5.17;1.62;;;;;;;20.29;50.84;101027.17;1687511;83;21238;-79
2023/05/04 07:30:53;;;;;;;4.25;1.40;;;;;;;20.41;47.87;101030.92;1681689;83;21894;-79
2023/05/04 07:33:59;;;;;;;3.75;1.27;;;;;;;20.47;46.81;101034.80;1676949;83;21217;-79
2023/05/04 07:37:04;;;;;;;9.85;1.65;;;;;;;20.42;46.27;101029.02;1676502;83;21209;-79
2023/05/04 07:40:15;;;;;;;3.17;1.37;;;;;;;20.50;46.54;101031.55;1668732;83;21225;-79
2023/05/04 07:43:20;;;;;;;3.55;1.30;;;;;;;20.72;46.01;101035.36;1672565;83;21365;-79
2023/05/04 07:46:28;;;;;;;3.37;1.50;;;;;;;20.88;44.50;101031.46;1722326;80;21201;-78
2023/05/04 07:49:34;;;;;;;6.30;1.52;;;;;;;20.95;43.24;101030.03;1721621;81;21707;-79
2023/05/04 07:52:39;;;;;;;2.98;1.30;;;;;;;21.08;43.04;101024.36;1719815;81;21239;-79
2023/05/04 07:55:46;;;;;;;3.87;1.60;;;;;;;21.18;44.42;101026.07;1710885;82;21780;-78
2023/05/04 07:58:52;;;;;;;6.30;1.92;;;;;;;21.28;43.99;101027.48;1686802;83;21241;-79
2023/05/04 08:01:56;;;;;;;8.88;1.55;;;;;;;21.32;43.73;101031.54;1688710;82;21240;-79
2023/05/04 08:05:02;;;;;;;9.53;1.47;;;;;;;21.41;44.55;101031.01;1691289;82;22788;-79
2023/05/04 08:08:08;;;;;;;4.53;1.90;;;;;;;21.49;43.32;101029.84;1683016;83;22050;-79
2023/05/04 08:11:16;;;;;;;8.15;1.90;;;;;;;21.56;42.82;101025.06;1691361;83;21217;-79
2023/05/04 08:14:22;;;;;;;13.58;1.70;;;;;;;21.51;41.83;101031.87;1711019;81;21402;-79
2023/05/04 08:17:28;;;;;;;8.33;2.02;;;;;;;21.45;43.25;101031.38;1743365;80;21228;-79
2023/05/04 08:20:33;;;;;;;5.83;1.77;;;;;;;21.31;44.06;101028.42;1722114;80;21173;-79
2023/05/04 08:23:40;;;;;;;14.33;2.08;;;;;;;21.19;43.28;101024.14;1723273;81;21141;-79
2023/05/04 08:26:45;;;;;;;8.45;1.98;;;;;;;21.11;43.13;101022.48;1727505;82;21178;-79
2023/05/04 08:29:52;;;;;;;8.33;2.17;;;;;;;21.23;45.41;101016.19;1721779;81;21164;-79
2023/05/04 08:32:58;;;;;;;5.05;2.35;;;;;;;21.38;46.37;101013.91;1725168;80;21744;-79
2023/05/04 08:36:03;;;;;;;2.77;1.40;;;;;;;21.50;46.49;101019.04;1715268;81;21185;-79
2023/05/04 08:39:01;;;;;;;5.95;1.90;;;;;;;21.49;44.51;101015.07;1727674;81;21191;-79
2023/05/04 08:41:54;;;;;;;5.75;1.80;;;;;;;21.52;45.45;101011.84;1726607;81;21203;-80
2023/05/04 08:44:47;;;;;;;4.85;1.85;;;;;;;21.50;45.11;101013.98;1723689;82;21339;-80
2023/05/04 08:47:53;;;;;;;4.40;1.30;;;;;;;21.46;44.72;101017.80;1728584;82;21212;-80
2023/05/04 08:50:58;;;;;;;4.12;1.50;;;;;;;21.44;44.55;101002.70;1722433;82;21525;-80
2023/05/04 08:54:03;;;;;;;6.40;1.67;;;;;;;21.41;45.02;101001.80;1724128;82;21288;-80
2023/05/04 08:57:10;;;;;;;9.13;1.50;;;;;;;21.40;45.99;100999.22;1728027;82;21767;-80
2023/05/04 09:00:17;;;;;;;10.85;2.00;;;;;;;21.37;45.79;101000.55;1712942;81;21212;-80
2023/05/04 09:03:25;;;;;;;4.45;1.75;;;;;;;21.39;46.26;101004.48;1683743;83;22252;-80
2023/05/04 09:06:28;;;;;;;3.08;1.42;;;;;;;21.47;45.03;101005.58;1722417;83;21361;-80
2023/05/04 09:09:34;;;;;;;4.08;1.80;;;;;;;21.56;44.03;101008.36;1719847;83;21293;-81
2023/05/04 09:12:41;;;;;;;9.90;1.87;;;;;;;21.63;44.52;100995.20;1701571;83;21196;-80
2023/05/04 09:15:48;;;;;;;8.98;2.22;;;;;;;21.82;43.65;100997.42;1719964;80;21196;-80
2023/05/04 09:18:54;;;;;;;5.53;2.10;;;;;;;21.90;40.81;100992.09;1673235;85;21248;-80
2023/05/04 09:21:59;;;;;;;8.53;2.35;;;;;;;21.95;41.44;100988.05;1685854;82;21236;-81
2023/05/04 09:25:19;;;;;;;4.78;2.25;;;;;;;22.02;42.36;100987.44;1687149;83;21256;-80
2023/05/04 09:28:24;;;;;;;3.67;2.30;;;;;;;22.07;41.76;100982.55;1691042;83;21212;-81
2023/05/04 09:31:31;;;;;;;4.40;2.20;;;;;;;22.10;43.34;100982.06;1695927;82;21228;-80
2023/05/04 09:34:37;;;;;;;6.17;2.30;;;;;;;22.12;42.50;100979.39;1705708;81;21197;-80
2023/05/04 09:37:36;;;;;;;6.33;2.85;;;;;;;22.09;40.94;100974.25;1698039;84;22243;-80
2023/05/04 09:40:47;;;;;;;8.90;3.58;;;;;;;22.03;41.78;100972.41;1690029;81;21744;-80
2023/05/04 09:43:54;;;;;;;11.95;3.92;;;;;;;21.88;41.60;100965.87;1711667;82;21770;-79
2023/05/04 09:47:02;;;;;;;11.38;5.47;;;;;;;21.79;42.65;100970.61;1694993;83;21366;-79
2023/05/04 09:50:24;;;;;;;14.85;6.10;;;;;;;21.71;44.55;100964.81;1692852;84;21200;-80
2023/05/04 09:53:31;;;;;;;11.35;5.17;;;;;;;21.63;43.59;100961.80;1691163;84;21212;-80
2023/05/04 09:56:55;;;;;;;17.32;5.72;;;;;;;21.49;44.26;100957.48;1674087;83;21220;-79
2023/05/04 10:00:03;;;;;;;14.30;5.10;;;;;;;21.43;44.51;100955.63;1698054;82;21212;-78
2023/05/04 10:03:10;;;;;;;12.82;5.75;;;;;;;21.43;43.40;100955.63;1701308;82;21264;-81
2023/05/04 10:06:16;;;;;;;11.97;5.30;;;;;;;21.45;43.08;100952.06;1697116;82;22575;-79
2023/05/04 10:09:17;;;;;;;14.60;6.15;;;;;;;21.43;43.66;100956.48;1706099;82;21193;-80
2023/05/04 10:12:23;;;;;;;12.55;5.42;;;;;;;21.48;43.73;100954.39;1702218;82;21257;-79
2023/05/04 10:15:28;;;;;;;12.78;5.55;;;;;;;21.45;43.38;100952.06;1736327;82;21189;-82
2023/05/04 10:18:49;;;;;;;11.48;4.65;;;;;;;21.31;43.36;100947.19;1706461;81;22468;-80
2023/05/04 10:22:40;;;;;;;13.30;5.00;;;;;;;21.27;42.26;100951.52;1681898;85;21915;-80
2023/05/04 10:26:06;;;;;;;16.05;2.80;;;;;;;21.28;42.31;100950.42;1704166;82;21221;-79
2023/05/04 10:29:32;;;;;;;6.92;2.70;;;;;;;21.33;44.83;100943.66;1700463;82;21193;-78
2023/05/04 10:32:38;;;;;;;7.92;2.08;;;;;;;21.41;44.07;100946.68;1716019;82;22100;-79
2023/05/04 10:35:47;;;;;;;4.45;1.47;;;;;;;21.50;45.11;100949.97;1702653;82;21221;-79
2023/05/04 10:38:52;;;;;;;5.85;1.90;;;;;;;21.57;43.84;100947.97;1697894;82;21819;-79
2023/05/04 10:42:11;;;;;;;2.58;1.32;;;;;;;21.60;42.62;100941.41;1700697;82;21284;-81
2023/05/04 10:45:17;;;;;;;7.60;1.60;;;;;;;21.55;40.84;100937.59;1693814;81;21743;-79
2023/05/04 10:48:22;;;;;;;3.98;1.47;;;;;;;21.46;41.21;100939.02;1701101;82;21271;-79
2023/05/04 10:51:31;;;;;;;4.95;1.50;;;;;;;21.41;41.47;100930.83;1695952;82;21189;-79
2023/05/04 10:54:38;;;;;;;3.20;1.20;;;;;;;21.32;40.12;100921.09;1690367;83;21254;-78
2023/05/04 10:58:01;;;;;;;6.20;1.45;;;;;;;21.31;40.09;100914.34;1694825;82;21193;-79
2023/05/04 11:01:07;;;;;;;9.48;1.40;;;;;;;21.29;40.27;100906.76;1682701;82;21678;-80
2023/05/04 11:04:13;;;;;;;3.58;1.45;;;;;;;21.36;41.19;100907.55;1684102;83;21229;-79
2023/05/04 11:07:19;;;;;;;3.80;1.35;;;;;;;21.35;41.78;100906.70;1701074;82;21237;-79
2023/05/04 11:10:30;;;;;;;3.60;1.22;;;;;;;21.38;41.54;100902.61;1691909;82;21218;-79
2023/05/04 11:13:43;;;;;;;8.88;1.30;;;;;;;21.31;40.86;100897.11;1705819;84;21198;-79
2023/05/04 11:16:49;;;;;;;3.67;1.27;;;;;;;21.24;41.63;100894.09;1669919;85;21276;-80
2023/05/04 11:19:55;;;;;;;2.72;1.22;;;;;;;21.24;40.73;100895.48;1678607;85;22586;-79
2023/05/04 11:23:01;;;;;;;5.25;1.32;;;;;;;21.21;39.93;100891.22;1710047;82;21241;-79
2023/05/04 11:26:13;;;;;;;7.50;1.17;;;;;;;21.12;39.90;100883.72;1711868;82;21200;-79
2023/05/04 11:29:19;;;;;;;2.25;0.90;;;;;;;21.11;38.49;100882.03;1707243;84;21216;-79
2023/05/04 11:32:25;;;;;;;9.10;1.10;;;;;;;20.91;37.55;100870.30;1708305;84;21213;-79
2023/05/04 11:35:32;;;;;;;2.95;1.05;;;;;;;20.86;37.49;100875.70;1707624;84;21629;-79
2023/05/04 11:38:39;;;;;;;2.25;0.95;;;;;;;20.78;37.85;100878.77;1706361;84;21236;-79
2023/05/04 11:41:44;;;;;;;6.37;1.10;;;;;;;20.84;40.01;100882.01;1680355;85;21196;-78
2023/05/04 11:44:51;;;;;;;1.98;1.10;;;;;;;20.73;39.70;100882.23;1682035;85;21223;-79
2023/05/04 11:47:57;;;;;;;13.15;1.47;;;;;;;20.70;40.54;100875.73;1699123;84;21852;-79
2023/05/04 11:51:03;;;;;;;1.30;1.00;;;;;;;20.72;41.03;100881.09;1691392;84;21471;-79
2023/05/04 11:54:09;;;;;;;4.22;0.90;;;;;;;20.75;40.64;100880.61;1722652;83;21239;-78
2023/05/04 11:57:14;;;;;;;5.85;1.25;;;;;;;20.82;39.47;100870.28;1719642;83;21200;-79
2023/05/04 12:00:21;;;;;;;2.52;1.07;;;;;;;20.89;40.10;100880.80;1719245;81;21271;-79
2023/05/04 12:03:38;;;;;;;1.57;0.95;;;;;;;20.96;39.54;100870.45;1729676;83;21181;-79
2023/05/04 12:06:46;;;;;;;2.02;1.17;;;;;;;20.93;39.75;100868.11;1720507;83;21193;-79
2023/05/04 12:09:53;;;;;;;4.08;1.17;;;;;;;20.95;39.35;100870.69;1728363;83;21208;-79
2023/05/04 12:12:58;;;;;;;3.20;1.02;;;;;;;20.97;39.57;100861.02;1733213;82;21239;-79
2023/05/04 12:16:05;;;;;;;4.60;1.20;;;;;;;21.02;38.36;100858.93;1731847;82;21189;-79
2023/05/04 12:19:17;;;;;;;3.08;0.82;;;;;;;21.07;39.23;100857.14;1722424;82;21462;-80
2023/05/04 12:22:23;;;;;;;3.55;1.60;;;;;;;21.06;38.82;100855.45;1720450;81;21240;-80
2023/05/04 12:25:29;;;;;;;3.70;1.12;;;;;;;21.05;39.14;100844.57;1718559;82;21180;-80
2023/05/04 12:28:36;;;;;;;4.70;1.10;;;;;;;20.99;37.80;100839.95;1712919;83;21228;-79
2023/05/04 12:31:43;;;;;;;4.85;1.37;;;;;;;20.94;38.67;100832.30;1725987;83;21192;-79
2023/05/04 12:34:49;;;;;;;3.00;1.10;;;;;;;20.92;38.19;100827.50;1738811;81;21204;-79
2023/05/04 12:37:54;;;;;;;3.40;0.82;;;;;;;20.89;38.59;100830.22;1717287;80;21200;-79
2023/05/04 12:41:03;;;;;;;2.58;0.90;;;;;;;20.86;39.21;100822.88;1727907;82;21213;-79
2023/05/04 12:44:10;;;;;;;3.12;1.00;;;;;;;20.75;38.82;100818.94;1710721;81;21201;-79
2023/05/04 12:47:16;;;;;;;2.08;0.95;;;;;;;20.70;38.73;100814.58;1698500;84;21205;-79
2023/05/04 12:50:21;;;;;;;5.62;0.93;;;;;;;20.70;38.47;100817.36;1706418;82;21224;-79
2023/05/04 12:53:30;;;;;;;2.95;1.20;;;;;;;20.75;38.03;100820.33;1707798;84;21233;-79
2023/05/04 12:56:38;;;;;;;3.02;1.25;;;;;;;20.62;37.34;100812.98;1709584;84;21224;-79
2023/05/04 12:59:44;;;;;;;1.27;1.00;;;;;;;20.56;37.23;100812.52;1681555;85;21280;-79
2023/05/04 13:02:51;;;;;;;9.58;1.25;;;;;;;20.50;37.07;100806.47;1680172;85;21354;-79
2023/05/04 13:05:57;;;;;;;2.08;0.90;;;;;;;20.49;38.00;100807.55;1680230;85;21272;-79
2023/05/04 13:09:05;;;;;;;2.12;0.85;;;;;;;20.53;37.75;100799.61;1679519;85;21307;-79
2023/05/04 13:12:11;;;;;;;7.97;1.52;;;;;;;20.55;37.68;100802.45;1678623;85;21224;-79
2023/05/04 13:15:19;;;;;;;7.28;0.90;;;;;;;20.42;37.82;100799.81;1679593;85;21197;-79
2023/05/04 13:18:18;;;;;;;3.75;1.00;;;;;;;20.48;38.27;100790.58;1678168;85;21224;-79
2023/05/04 13:21:23;;;;;;;2.90;1.02;;;;;;;20.41;37.95;100786.97;1680315;85;21272;-79
2023/05/04 13:24:28;;;;;;;1.90;1.17;;;;;;;20.33;38.29;100780.34;1681079;85;21776;-79
2023/05/04 13:27:34;;;;;;;2.90;1.30;;;;;;;20.28;38.80;100774.09;1681232;85;21251;-79
2023/05/04 13:30:39;;;;;;;2.98;1.00;;;;;;;20.25;38.57;100773.15;1681181;85;21206;-79
2023/05/04 13:33:45;;;;;;;6.60;1.25;;;;;;;20.22;39.54;100769.97;1710336;84;21191;-79
2023/05/04 13:36:50;;;;;;;2.47;1.30;;;;;;;20.20;39.98;100765.20;1710426;84;21786;-79
2023/05/04 13:39:58;;;;;;;6.15;0.80;;;;;;;20.18;39.70;100764.02;1710368;84;21238;-79
2023/05/04 13:43:04;;;;;;;5.25;1.20;;;;;;;20.16;38.94;100755.08;1710492;84;21278;-79
2023/05/04 13:46:06;;;;;;;5.17;1.15;;;;;;;20.12;40.31;100754.68;1711641;84;21223;-79
2023/05/04 13:49:12;;;;;;;3.47;1.05;;;;;;;20.17;40.17;100751.22;1707293;82;21239;-79
2023/05/04 13:55:04;;;;;;;4.33;1.35;;;;;;;20.17;41.02;100742.88;1856322;76;28044;-79
2023/05/04 13:58:10;;;;;;;5.22;1.10;;;;;;;20.13;40.71;100742.48;1750430;82;21180;-79
2023/05/04 14:01:15;;;;;;;4.37;1.15;;;;;;;20.16;40.68;100737.02;1736376;82;21237;-79
2023/05/04 14:04:22;;;;;;;7.60;1.30;;;;;;;20.20;40.87;100735.49;1719743;83;21242;-79
2023/05/04 14:07:28;;;;;;;9.48;1.65;;;;;;;20.21;41.35;100733.02;1736371;82;21237;-79
2023/05/04 14:10:33;;;;;;;6.17;1.10;;;;;;;20.24;41.28;100735.89;1719556;83;21857;-79
2023/05/04 14:13:41;;;;;;;8.15;1.30;;;;;;;20.08;40.01;100731.22;1735127;82;21371;-79
2023/05/04 14:16:47;;;;;;;3.58;1.20;;;;;;;20.06;40.65;100726.98;1719549;83;21196;-79
2023/05/04 14:19:53;;;;;;;4.15;1.20;;;;;;;20.01;42.00;100724.89;1735310;82;21831;-79
2023/05/04 14:22:59;;;;;;;4.22;1.10;;;;;;;19.94;42.34;100726.88;1719593;83;21243;-79
2023/05/04 14:26:05;;;;;;;2.40;0.90;;;;;;;19.97;43.42;100719.48;1735969;82;21229;-79